PWSweather.com
Personal Weather Stations
Station Observations
NIGHT1
EastleighGB

EastleighGB

Lat: 50.966307, Lon: -1.380982

Elevation: 78

Station Type: Davis VP2 with daytime FARS

Latest ConditionsUpdated 3:20:00 PM GMT Saturday, Feb 6, 2016
Currently Today's Max Today's Min Today's Average
Temperature 51.7°F10.9°C 53.2°F11.8°C 49.1°F9.5°C 50.9°F10.5°C
Dew Point 48.3°F9.1°C 49.2°F9.6°C 47.8°F8.8°C 48.6°F9.2°C
Winds 14.5 mph SSE23.3 kmh SSE 16.3 mph S26.2 kmh S - 10.1 mph 16.3 kmh
Wind Gusts 33.0 mph53.1 kmh 45.0 mph72.4 kmh - -
Humidity 88% 97% 83% 92%
Pressure 29.28 in991.5 mb 29.77 in1008.1 mb 29.28 in991.5 mb -
Precipitation - 0.08 in2.0 mm - -
Hour Temp Dew Point Humidity Winds Wind Gusts Pressure Precip Precip Rate Daily Precip Total
03:20 PM 51.7°F10.9°C 48.3°F9.1°C 88% 14.5 mph SSE23.3 kmh SSE 33.0 mph53.1 kmh 29.28 in991.5 mb 0.02 in0.5 mm 0.12 in3.0 mm 0.08 in2.0 mm
03:15 PM 51.5°F10.8°C 48.1°F8.9°C 88% 14.6 mph S23.5 kmh S 33.0 mph53.1 kmh 29.29 in991.9 mb 0.01 in0.3 mm 0.00 in0.0 mm 0.07 in1.8 mm
03:10 PM 51.9°F11.1°C 48.2°F9.0°C 87% 14.2 mph S22.9 kmh S 29.0 mph46.7 kmh 29.29 in991.9 mb 0.01 in0.3 mm 0.12 in3.0 mm 0.07 in1.8 mm
03:05 PM 52.0°F11.1°C 48.3°F9.1°C 87% 14.5 mph S23.3 kmh S 27.0 mph43.5 kmh 29.29 in991.9 mb 0.00 in0.0 mm 0.00 in0.0 mm 0.06 in1.5 mm
03:00 PM 52.0°F11.1°C 47.9°F8.8°C 86% 14.8 mph S23.8 kmh S 25.0 mph40.2 kmh 29.29 in991.9 mb 0.00 in0.0 mm 0.00 in0.0 mm 0.06 in1.5 mm
02:55 PM 52.3°F11.3°C 47.9°F8.8°C 85% 14.7 mph S23.7 kmh S 25.0 mph40.2 kmh 29.30 in992.2 mb 0.00 in0.0 mm 0.00 in0.0 mm 0.06 in1.5 mm
02:50 PM 52.5°F11.4°C 48.1°F8.9°C 85% 14.0 mph S22.5 kmh S 30.0 mph48.3 kmh 29.30 in992.2 mb 0.00 in0.0 mm 0.00 in0.0 mm 0.06 in1.5 mm
02:45 PM 52.6°F11.4°C 47.9°F8.8°C 84% 13.3 mph S21.4 kmh S 30.0 mph48.3 kmh 29.30 in992.2 mb 0.00 in0.0 mm 0.00 in0.0 mm 0.06 in1.5 mm
02:40 PM 52.7°F11.5°C 48.0°F8.9°C 84% 13.7 mph S22.0 kmh S 27.0 mph43.5 kmh 29.30 in992.2 mb 0.00 in0.0 mm 0.00 in0.0 mm 0.06 in1.5 mm
02:35 PM 52.7°F11.5°C 48.0°F8.9°C 84% 14.6 mph S23.5 kmh S 27.0 mph43.5 kmh 29.30 in992.2 mb 0.00 in0.0 mm 0.00 in0.0 mm 0.06 in1.5 mm
02:30 PM 52.8°F11.6°C 48.1°F8.9°C 84% 15.0 mph S24.1 kmh S 27.0 mph43.5 kmh 29.31 in992.6 mb 0.00 in0.0 mm 0.00 in0.0 mm 0.06 in1.5 mm
02:25 PM 52.9°F11.6°C 47.9°F8.8°C 83% 15.1 mph S24.3 kmh S 33.0 mph53.1 kmh 29.31 in992.6 mb 0.00 in0.0 mm 0.00 in0.0 mm 0.06 in1.5 mm
02:20 PM 52.9°F11.6°C 47.9°F8.8°C 83% 15.3 mph S24.6 kmh S 34.0 mph54.7 kmh 29.31 in992.6 mb 0.00 in0.0 mm 0.00 in0.0 mm 0.06 in1.5 mm
02:15 PM 53.0°F11.7°C 48.0°F8.9°C 83% 15.2 mph S24.5 kmh S 34.0 mph54.7 kmh 29.32 in992.9 mb 0.00 in0.0 mm 0.00 in0.0 mm 0.06 in1.5 mm
02:10 PM 53.0°F11.7°C 48.0°F8.9°C 83% 15.0 mph S24.1 kmh S 29.0 mph46.7 kmh 29.32 in992.9 mb 0.00 in0.0 mm 0.00 in0.0 mm 0.06 in1.5 mm
02:05 PM 52.8°F11.6°C 47.8°F8.8°C 83% 15.5 mph S24.9 kmh S 31.0 mph49.9 kmh 29.32 in992.9 mb 0.00 in0.0 mm 0.00 in0.0 mm 0.06 in1.5 mm
02:00 PM 52.9°F11.6°C 48.2°F9.0°C 84% 16.3 mph S26.2 kmh S 31.0 mph49.9 kmh 29.32 in992.9 mb 0.00 in0.0 mm 0.00 in0.0 mm 0.06 in1.5 mm
01:55 PM 52.9°F11.6°C 48.2°F9.0°C 84% 15.8 mph S25.4 kmh S 31.0 mph49.9 kmh 29.33 in993.2 mb 0.00 in0.0 mm 0.00 in0.0 mm 0.06 in1.5 mm
01:50 PM 53.0°F11.7°C 48.0°F8.9°C 83% 14.4 mph S23.2 kmh S 45.0 mph72.4 kmh 29.33 in993.2 mb 0.00 in0.0 mm 0.00 in0.0 mm 0.06 in1.5 mm
01:45 PM 53.0°F11.7°C 48.3°F9.1°C 84% 14.4 mph S23.2 kmh S 45.0 mph72.4 kmh 29.33 in993.2 mb 0.00 in0.0 mm 0.00 in0.0 mm 0.06 in1.5 mm
01:40 PM 52.9°F11.6°C 48.2°F9.0°C 84% 15.3 mph S24.6 kmh S 32.0 mph51.5 kmh 29.34 in993.6 mb 0.00 in0.0 mm 0.00 in0.0 mm 0.06 in1.5 mm
01:35 PM 53.0°F11.7°C 48.3°F9.1°C 84% 15.2 mph S24.5 kmh S 35.0 mph56.3 kmh 29.34 in993.6 mb 0.00 in0.0 mm 0.00 in0.0 mm 0.06 in1.5 mm
01:30 PM 52.9°F11.6°C 48.2°F9.0°C 84% 14.4 mph S23.2 kmh S 35.0 mph56.3 kmh 29.35 in993.9 mb 0.00 in0.0 mm 0.00 in0.0 mm 0.06 in1.5 mm
01:25 PM 52.9°F11.6°C 48.2°F9.0°C 84% 14.0 mph S22.5 kmh S 35.0 mph56.3 kmh 29.36 in994.2 mb 0.00 in0.0 mm 0.00 in0.0 mm 0.06 in1.5 mm
01:20 PM 52.9°F11.6°C 48.5°F9.2°C 85% 14.2 mph S22.9 kmh S 35.0 mph56.3 kmh 29.36 in994.2 mb 0.00 in0.0 mm 0.00 in0.0 mm 0.06 in1.5 mm
01:15 PM 53.0°F11.7°C 48.3°F9.1°C 84% 14.2 mph S22.9 kmh S 29.0 mph46.7 kmh 29.36 in994.2 mb 0.00 in0.0 mm 0.00 in0.0 mm 0.06 in1.5 mm
01:10 PM 53.0°F11.7°C 48.3°F9.1°C 84% 13.7 mph S22.0 kmh S 28.0 mph45.1 kmh 29.37 in994.6 mb 0.00 in0.0 mm 0.00 in0.0 mm 0.06 in1.5 mm
01:05 PM 53.1°F11.7°C 48.4°F9.1°C 84% 13.8 mph S22.2 kmh S 28.0 mph45.1 kmh 29.37 in994.6 mb 0.00 in0.0 mm 0.00 in0.0 mm 0.06 in1.5 mm
01:00 PM 53.1°F11.7°C 48.4°F9.1°C 84% 14.2 mph S22.9 kmh S 28.0 mph45.1 kmh 29.37 in994.6 mb 0.00 in0.0 mm 0.00 in0.0 mm 0.06 in1.5 mm
12:55 PM 53.1°F11.7°C 48.4°F9.1°C 84% 14.1 mph S22.7 kmh S 28.0 mph45.1 kmh 29.38 in994.9 mb 0.00 in0.0 mm 0.00 in0.0 mm 0.06 in1.5 mm
12:50 PM 53.2°F11.8°C 48.5°F9.2°C 84% 14.2 mph S22.9 kmh S 26.0 mph41.8 kmh 29.39 in995.3 mb 0.00 in0.0 mm 0.00 in0.0 mm 0.06 in1.5 mm
12:45 PM 53.2°F11.8°C 48.5°F9.2°C 84% 14.1 mph S22.7 kmh S 26.0 mph41.8 kmh 29.39 in995.3 mb 0.00 in0.0 mm 0.00 in0.0 mm 0.06 in1.5 mm
12:40 PM 53.2°F11.8°C 48.8°F9.3°C 85% 13.5 mph S21.7 kmh S 30.0 mph48.3 kmh 29.39 in995.3 mb 0.00 in0.0 mm 0.00 in0.0 mm 0.06 in1.5 mm
12:35 PM 53.2°F11.8°C 48.8°F9.3°C 85% 13.3 mph S21.4 kmh S 30.0 mph48.3 kmh 29.39 in995.3 mb 0.00 in0.0 mm 0.00 in0.0 mm 0.06 in1.5 mm
12:30 PM 53.1°F11.7°C 49.0°F9.4°C 86% 13.6 mph S21.9 kmh S 29.0 mph46.7 kmh 29.40 in995.6 mb 0.00 in0.0 mm 0.00 in0.0 mm 0.06 in1.5 mm
12:25 PM 52.9°F11.6°C 48.8°F9.3°C 86% 13.6 mph S21.9 kmh S 27.0 mph43.5 kmh 29.40 in995.6 mb 0.00 in0.0 mm 0.00 in0.0 mm 0.06 in1.5 mm
12:20 PM 52.8°F11.6°C 48.7°F9.3°C 86% 13.2 mph S21.2 kmh S 27.0 mph43.5 kmh 29.41 in995.9 mb 0.00 in0.0 mm 0.00 in0.0 mm 0.06 in1.5 mm
12:15 PM 52.7°F11.5°C 48.6°F9.2°C 86% 13.5 mph S21.7 kmh S 28.0 mph45.1 kmh 29.41 in995.9 mb 0.00 in0.0 mm 0.00 in0.0 mm 0.06 in1.5 mm
12:10 PM 52.5°F11.4°C 48.7°F9.3°C 87% 14.0 mph S22.5 kmh S 28.0 mph45.1 kmh 29.41 in995.9 mb 0.00 in0.0 mm 0.00 in0.0 mm 0.06 in1.5 mm
12:05 PM 52.3°F11.3°C 48.9°F9.4°C 88% 13.7 mph S22.0 kmh S 31.0 mph49.9 kmh 29.41 in995.9 mb 0.00 in0.0 mm 0.00 in0.0 mm 0.06 in1.5 mm
12:00 PM 52.3°F11.3°C 48.9°F9.4°C 88% 12.3 mph S19.8 kmh S 32.0 mph51.5 kmh 29.42 in996.3 mb 0.00 in0.0 mm 0.00 in0.0 mm 0.06 in1.5 mm
11:55 AM 52.1°F11.2°C 49.0°F9.4°C 89% 11.1 mph S17.9 kmh S 32.0 mph51.5 kmh 29.42 in996.3 mb 0.00 in0.0 mm 0.00 in0.0 mm 0.06 in1.5 mm
11:50 AM 52.0°F11.1°C 48.9°F9.4°C 89% 11.9 mph S19.2 kmh S 25.0 mph40.2 kmh 29.43 in996.6 mb 0.00 in0.0 mm 0.00 in0.0 mm 0.06 in1.5 mm
11:45 AM 51.9°F11.1°C 48.8°F9.3°C 89% 13.0 mph S20.9 kmh S 31.0 mph49.9 kmh 29.43 in996.6 mb 0.00 in0.0 mm 0.00 in0.0 mm 0.06 in1.5 mm
11:40 AM 51.9°F11.1°C 49.1°F9.5°C 90% 13.1 mph S21.1 kmh S 32.0 mph51.5 kmh 29.43 in996.6 mb 0.00 in0.0 mm 0.00 in0.0 mm 0.06 in1.5 mm
11:35 AM 52.0°F11.1°C 49.2°F9.6°C 90% 13.2 mph S21.2 kmh S 32.0 mph51.5 kmh 29.44 in997.0 mb 0.00 in0.0 mm 0.00 in0.0 mm 0.06 in1.5 mm
11:30 AM 52.0°F11.1°C 49.2°F9.6°C 90% 13.7 mph S22.0 kmh S 29.0 mph46.7 kmh 29.44 in997.0 mb 0.00 in0.0 mm 0.00 in0.0 mm 0.06 in1.5 mm
11:25 AM 52.0°F11.1°C 49.2°F9.6°C 90% 13.4 mph S21.6 kmh S 29.0 mph46.7 kmh 29.44 in997.0 mb 0.00 in0.0 mm 0.00 in0.0 mm 0.06 in1.5 mm
11:20 AM 51.9°F11.1°C 49.1°F9.5°C 90% 11.7 mph S18.8 kmh S 25.0 mph40.2 kmh 29.44 in997.0 mb 0.00 in0.0 mm 0.00 in0.0 mm 0.06 in1.5 mm
11:15 AM 51.9°F11.1°C 49.1°F9.5°C 90% 11.2 mph S18.0 kmh S 26.0 mph41.8 kmh 29.45 in997.3 mb 0.00 in0.0 mm 0.00 in0.0 mm 0.06 in1.5 mm
11:10 AM 51.8°F11.0°C 49.0°F9.4°C 90% 12.4 mph S20.0 kmh S 26.0 mph41.8 kmh 29.45 in997.3 mb 0.00 in0.0 mm 0.00 in0.0 mm 0.06 in1.5 mm
11:05 AM 51.8°F11.0°C 49.0°F9.4°C 90% 12.9 mph S20.8 kmh S 31.0 mph49.9 kmh 29.46 in997.6 mb 0.00 in0.0 mm 0.00 in0.0 mm 0.06 in1.5 mm
11:00 AM 51.8°F11.0°C 49.0°F9.4°C 90% 13.0 mph S20.9 kmh S 31.0 mph49.9 kmh 29.46 in997.6 mb 0.00 in0.0 mm 0.00 in0.0 mm 0.06 in1.5 mm
10:55 AM 51.6°F10.9°C 48.8°F9.3°C 90% 13.7 mph S22.0 kmh S 27.0 mph43.5 kmh 29.46 in997.6 mb 0.00 in0.0 mm 0.00 in0.0 mm 0.06 in1.5 mm
10:50 AM 51.6°F10.9°C 49.1°F9.5°C 91% 14.1 mph S22.7 kmh S 25.0 mph40.2 kmh 29.47 in998.0 mb 0.00 in0.0 mm 0.00 in0.0 mm 0.06 in1.5 mm
10:45 AM 51.6°F10.9°C 49.1°F9.5°C 91% 14.1 mph S22.7 kmh S 32.0 mph51.5 kmh 29.47 in998.0 mb 0.00 in0.0 mm 0.00 in0.0 mm 0.06 in1.5 mm
10:40 AM 51.6°F10.9°C 49.1°F9.5°C 91% 14.2 mph S22.9 kmh S 32.0 mph51.5 kmh 29.48 in998.3 mb 0.00 in0.0 mm 0.00 in0.0 mm 0.06 in1.5 mm
10:35 AM 51.6°F10.9°C 49.1°F9.5°C 91% 13.6 mph S21.9 kmh S 32.0 mph51.5 kmh 29.48 in998.3 mb 0.00 in0.0 mm 0.00 in0.0 mm 0.06 in1.5 mm
10:30 AM 51.7°F10.9°C 49.2°F9.6°C 91% 13.1 mph S21.1 kmh S 32.0 mph51.5 kmh 29.48 in998.3 mb 0.00 in0.0 mm 0.00 in0.0 mm 0.06 in1.5 mm
10:25 AM 51.6°F10.9°C 49.1°F9.5°C 91% 13.3 mph S21.4 kmh S 31.0 mph49.9 kmh 29.48 in998.3 mb 0.00 in0.0 mm 0.00 in0.0 mm 0.06 in1.5 mm
10:20 AM 51.6°F10.9°C 49.1°F9.5°C 91% 13.2 mph S21.2 kmh S 31.0 mph49.9 kmh 29.49 in998.6 mb 0.00 in0.0 mm 0.00 in0.0 mm 0.06 in1.5 mm
10:15 AM 51.5°F10.8°C 49.0°F9.4°C 91% 12.5 mph S20.1 kmh S 28.0 mph45.1 kmh 29.49 in998.6 mb 0.00 in0.0 mm 0.00 in0.0 mm 0.06 in1.5 mm
10:10 AM 51.5°F10.8°C 49.0°F9.4°C 91% 11.5 mph S18.5 kmh S 26.0 mph41.8 kmh 29.49 in998.6 mb 0.00 in0.0 mm 0.00 in0.0 mm 0.06 in1.5 mm
10:05 AM 51.5°F10.8°C 49.0°F9.4°C 91% 11.3 mph S18.2 kmh S 26.0 mph41.8 kmh 29.49 in998.6 mb 0.00 in0.0 mm 0.00 in0.0 mm 0.06 in1.5 mm
10:00 AM 51.4°F10.8°C 49.2°F9.6°C 92% 12.1 mph S19.5 kmh S 26.0 mph41.8 kmh 29.50 in999.0 mb 0.00 in0.0 mm 0.00 in0.0 mm 0.06 in1.5 mm
09:55 AM 51.4°F10.8°C 48.9°F9.4°C 91% 12.5 mph S20.1 kmh S 27.0 mph43.5 kmh 29.50 in999.0 mb 0.00 in0.0 mm 0.00 in0.0 mm 0.06 in1.5 mm
09:50 AM 51.4°F10.8°C 49.2°F9.6°C 92% 12.0 mph S19.3 kmh S 27.0 mph43.5 kmh 29.50 in999.0 mb 0.00 in0.0 mm 0.00 in0.0 mm 0.06 in1.5 mm
09:45 AM 51.4°F10.8°C 49.2°F9.6°C 92% 11.4 mph S18.3 kmh S 27.0 mph43.5 kmh 29.50 in999.0 mb 0.00 in0.0 mm 0.00 in0.0 mm 0.06 in1.5 mm
09:40 AM 51.3°F10.7°C 48.8°F9.3°C 91% 11.1 mph S17.9 kmh S 23.0 mph37.0 kmh 29.50 in999.0 mb 0.01 in0.3 mm 0.00 in0.0 mm 0.06 in1.5 mm
09:35 AM 51.3°F10.7°C 49.1°F9.5°C 92% 11.0 mph S17.7 kmh S 32.0 mph51.5 kmh 29.51 in999.3 mb 0.01 in0.3 mm 0.00 in0.0 mm 0.06 in1.5 mm
09:30 AM 51.2°F10.7°C 49.0°F9.4°C 92% 11.4 mph S18.3 kmh S 32.0 mph51.5 kmh 29.51 in999.3 mb 0.01 in0.3 mm 0.00 in0.0 mm 0.06 in1.5 mm
09:25 AM 51.1°F10.6°C 48.9°F9.4°C 92% 11.8 mph S19.0 kmh S 24.0 mph38.6 kmh 29.51 in999.3 mb 0.01 in0.3 mm 0.00 in0.0 mm 0.06 in1.5 mm
09:20 AM 51.1°F10.6°C 48.9°F9.4°C 92% 11.7 mph S18.8 kmh S 26.0 mph41.8 kmh 29.51 in999.3 mb 0.01 in0.3 mm 0.00 in0.0 mm 0.06 in1.5 mm
09:15 AM 51.2°F10.7°C 49.0°F9.4°C 92% 11.5 mph S18.5 kmh S 26.0 mph41.8 kmh 29.52 in999.7 mb 0.01 in0.3 mm 0.00 in0.0 mm 0.06 in1.5 mm
09:10 AM 51.1°F10.6°C 48.9°F9.4°C 92% 11.4 mph S18.3 kmh S 26.0 mph41.8 kmh 29.52 in999.7 mb 0.01 in0.3 mm 0.00 in0.0 mm 0.06 in1.5 mm
09:05 AM 51.0°F10.6°C 48.8°F9.3°C 92% 11.4 mph S18.3 kmh S 26.0 mph41.8 kmh 29.52 in999.7 mb 0.01 in0.3 mm 0.00 in0.0 mm 0.06 in1.5 mm
09:00 AM 51.0°F10.6°C 48.8°F9.3°C 92% 11.4 mph S18.3 kmh S 22.0 mph35.4 kmh 29.52 in999.7 mb 0.01 in0.3 mm 0.00 in0.0 mm 0.06 in1.5 mm
08:55 AM 51.0°F10.6°C 48.8°F9.3°C 92% 11.7 mph S18.8 kmh S 23.0 mph37.0 kmh 29.53 in1000.0 mb 0.01 in0.3 mm 0.00 in0.0 mm 0.06 in1.5 mm
08:50 AM 51.0°F10.6°C 48.8°F9.3°C 92% 11.8 mph S19.0 kmh S 33.0 mph53.1 kmh 29.53 in1000.0 mb 0.01 in0.3 mm 0.00 in0.0 mm 0.06 in1.5 mm
08:45 AM 51.0°F10.6°C 49.0°F9.4°C 93% 11.0 mph S17.7 kmh S 33.0 mph53.1 kmh 29.53 in1000.0 mb 0.01 in0.3 mm 0.12 in3.0 mm 0.06 in1.5 mm
08:40 AM 50.8°F10.4°C 48.8°F9.3°C 93% 10.2 mph S16.4 kmh S 22.0 mph35.4 kmh 29.54 in1000.3 mb 0.00 in0.0 mm 0.00 in0.0 mm 0.06 in1.5 mm
08:35 AM 50.7°F10.4°C 48.7°F9.3°C 93% 10.0 mph S16.1 kmh S 20.0 mph32.2 kmh 29.54 in1000.3 mb 0.00 in0.0 mm 0.00 in0.0 mm 0.06 in1.5 mm
08:30 AM 50.6°F10.3°C 48.7°F9.3°C 93% 10.2 mph S16.4 kmh S 20.0 mph32.2 kmh 29.54 in1000.3 mb 0.00 in0.0 mm 0.00 in0.0 mm 0.06 in1.5 mm
08:25 AM 50.5°F10.3°C 48.6°F9.2°C 93% 10.8 mph S17.4 kmh S 23.0 mph37.0 kmh 29.54 in1000.3 mb 0.00 in0.0 mm 0.00 in0.0 mm 0.06 in1.5 mm
08:20 AM 50.5°F10.3°C 48.6°F9.2°C 93% 11.3 mph S18.2 kmh S 23.0 mph37.0 kmh 29.55 in1000.7 mb 0.00 in0.0 mm 0.00 in0.0 mm 0.06 in1.5 mm
08:15 AM 50.5°F10.3°C 48.6°F9.2°C 93% 11.2 mph S18.0 kmh S 22.0 mph35.4 kmh 29.55 in1000.7 mb 0.00 in0.0 mm 0.00 in0.0 mm 0.06 in1.5 mm
08:10 AM 50.5°F10.3°C 48.6°F9.2°C 93% 10.7 mph S17.2 kmh S 23.0 mph37.0 kmh 29.55 in1000.7 mb 0.00 in0.0 mm 0.00 in0.0 mm 0.06 in1.5 mm
08:05 AM 50.5°F10.3°C 48.6°F9.2°C 93% 10.2 mph S16.4 kmh S 23.0 mph37.0 kmh 29.55 in1000.7 mb 0.01 in0.3 mm 0.00 in0.0 mm 0.06 in1.5 mm
08:00 AM 50.5°F10.3°C 48.6°F9.2°C 93% 10.3 mph S16.6 kmh S 23.0 mph37.0 kmh 29.55 in1000.7 mb 0.01 in0.3 mm 0.00 in0.0 mm 0.06 in1.5 mm
07:55 AM 50.5°F10.3°C 48.6°F9.2°C 93% 10.6 mph S17.1 kmh S 24.0 mph38.6 kmh 29.56 in1001.0 mb 0.01 in0.3 mm 0.00 in0.0 mm 0.06 in1.5 mm
07:50 AM 50.5°F10.3°C 48.6°F9.2°C 93% 10.5 mph S16.9 kmh S 24.0 mph38.6 kmh 29.56 in1001.0 mb 0.01 in0.3 mm 0.00 in0.0 mm 0.06 in1.5 mm
07:45 AM 50.5°F10.3°C 48.6°F9.2°C 93% 10.3 mph S16.6 kmh S 22.0 mph35.4 kmh 29.57 in1001.4 mb 0.01 in0.3 mm 0.00 in0.0 mm 0.06 in1.5 mm
07:40 AM 50.5°F10.3°C 48.6°F9.2°C 93% 9.7 mph S15.6 kmh S 22.0 mph35.4 kmh 29.57 in1001.4 mb 0.01 in0.3 mm 0.00 in0.0 mm 0.06 in1.5 mm
07:35 AM 50.5°F10.3°C 48.6°F9.2°C 93% 9.4 mph S15.1 kmh S 22.0 mph35.4 kmh 29.57 in1001.4 mb 0.01 in0.3 mm 0.00 in0.0 mm 0.06 in1.5 mm
07:30 AM 50.5°F10.3°C 48.6°F9.2°C 93% 9.4 mph S15.1 kmh S 21.0 mph33.8 kmh 29.57 in1001.4 mb 0.01 in0.3 mm 0.00 in0.0 mm 0.06 in1.5 mm
07:25 AM 50.5°F10.3°C 48.6°F9.2°C 93% 9.1 mph S14.6 kmh S 21.0 mph33.8 kmh 29.58 in1001.7 mb 0.01 in0.3 mm 0.00 in0.0 mm 0.06 in1.5 mm
07:20 AM 50.5°F10.3°C 48.6°F9.2°C 93% 9.7 mph S15.6 kmh S 21.0 mph33.8 kmh 29.58 in1001.7 mb 0.01 in0.3 mm 0.00 in0.0 mm 0.06 in1.5 mm
07:15 AM 50.4°F10.2°C 48.5°F9.2°C 93% 10.7 mph S17.2 kmh S 21.0 mph33.8 kmh 29.58 in1001.7 mb 0.01 in0.3 mm 0.00 in0.0 mm 0.06 in1.5 mm
07:10 AM 50.4°F10.2°C 48.5°F9.2°C 93% 10.4 mph S16.7 kmh S 26.0 mph41.8 kmh 29.58 in1001.7 mb 0.01 in0.3 mm 0.12 in3.0 mm 0.06 in1.5 mm
07:05 AM 50.3°F10.2°C 48.6°F9.2°C 94% 9.1 mph S14.6 kmh S 26.0 mph41.8 kmh 29.59 in1002.0 mb 0.00 in0.0 mm 0.00 in0.0 mm 0.05 in1.3 mm
07:00 AM 50.3°F10.2°C 48.6°F9.2°C 94% 7.9 mph S12.7 kmh S 23.0 mph37.0 kmh 29.59 in1002.0 mb 0.00 in0.0 mm 0.00 in0.0 mm 0.05 in1.3 mm
06:55 AM 50.2°F10.1°C 48.5°F9.2°C 94% 7.2 mph S11.6 kmh S 16.0 mph25.7 kmh 29.59 in1002.0 mb 0.00 in0.0 mm 0.00 in0.0 mm 0.05 in1.3 mm
06:50 AM 50.1°F10.1°C 48.4°F9.1°C 94% 7.5 mph S12.1 kmh S 18.0 mph29.0 kmh 29.59 in1002.0 mb 0.00 in0.0 mm 0.00 in0.0 mm 0.05 in1.3 mm
06:45 AM 50.2°F10.1°C 48.5°F9.2°C 94% 8.2 mph S13.2 kmh S 18.0 mph29.0 kmh 29.60 in1002.4 mb 0.00 in0.0 mm 0.00 in0.0 mm 0.05 in1.3 mm
06:40 AM 50.1°F10.1°C 48.4°F9.1°C 94% 8.6 mph S13.8 kmh S 18.0 mph29.0 kmh 29.60 in1002.4 mb 0.00 in0.0 mm 0.00 in0.0 mm 0.05 in1.3 mm
06:35 AM 50.2°F10.1°C 48.5°F9.2°C 94% 8.8 mph S14.2 kmh S 18.0 mph29.0 kmh 29.60 in1002.4 mb 0.00 in0.0 mm 0.00 in0.0 mm 0.05 in1.3 mm
06:30 AM 50.0°F10.0°C 48.3°F9.1°C 94% 8.9 mph S14.3 kmh S 20.0 mph32.2 kmh 29.60 in1002.4 mb 0.00 in0.0 mm 0.00 in0.0 mm 0.05 in1.3 mm
06:25 AM 50.0°F10.0°C 48.3°F9.1°C 94% 9.4 mph S15.1 kmh S 20.0 mph32.2 kmh 29.60 in1002.4 mb 0.00 in0.0 mm 0.00 in0.0 mm 0.05 in1.3 mm
06:20 AM 49.9°F9.9°C 48.2°F9.0°C 94% 9.3 mph S15.0 kmh S 23.0 mph37.0 kmh 29.61 in1002.7 mb 0.00 in0.0 mm 0.00 in0.0 mm 0.05 in1.3 mm
06:15 AM 50.0°F10.0°C 48.3°F9.1°C 94% 8.2 mph S13.2 kmh S 23.0 mph37.0 kmh 29.61 in1002.7 mb 0.00 in0.0 mm 0.00 in0.0 mm 0.05 in1.3 mm
06:10 AM 50.0°F10.0°C 48.3°F9.1°C 94% 7.8 mph S12.6 kmh S 16.0 mph25.7 kmh 29.62 in1003.0 mb 0.00 in0.0 mm 0.00 in0.0 mm 0.05 in1.3 mm
06:05 AM 50.1°F10.1°C 48.4°F9.1°C 94% 8.0 mph S12.9 kmh S 19.0 mph30.6 kmh 29.62 in1003.0 mb 0.00 in0.0 mm 0.00 in0.0 mm 0.05 in1.3 mm
06:00 AM 50.2°F10.1°C 48.5°F9.2°C 94% 7.8 mph S12.6 kmh S 19.0 mph30.6 kmh 29.62 in1003.0 mb 0.00 in0.0 mm 0.00 in0.0 mm 0.05 in1.3 mm
05:55 AM 50.3°F10.2°C 48.4°F9.1°C 93% 7.9 mph S12.7 kmh S 17.0 mph27.4 kmh 29.62 in1003.0 mb 0.00 in0.0 mm 0.00 in0.0 mm 0.05 in1.3 mm
05:50 AM 50.2°F10.1°C 48.3°F9.1°C 93% 8.3 mph S13.4 kmh S 19.0 mph30.6 kmh 29.62 in1003.0 mb 0.00 in0.0 mm 0.00 in0.0 mm 0.05 in1.3 mm
05:45 AM 50.2°F10.1°C 48.5°F9.2°C 94% 8.4 mph S13.5 kmh S 19.0 mph30.6 kmh 29.62 in1003.0 mb 0.00 in0.0 mm 0.00 in0.0 mm 0.05 in1.3 mm
05:40 AM 50.1°F10.1°C 48.4°F9.1°C 94% 8.6 mph S13.8 kmh S 21.0 mph33.8 kmh 29.62 in1003.0 mb 0.00 in0.0 mm 0.00 in0.0 mm 0.05 in1.3 mm
05:35 AM 50.0°F10.0°C 48.3°F9.1°C 94% 8.9 mph S14.3 kmh S 21.0 mph33.8 kmh 29.62 in1003.0 mb 0.00 in0.0 mm 0.00 in0.0 mm 0.05 in1.3 mm
05:30 AM 49.9°F9.9°C 48.2°F9.0°C 94% 9.0 mph S14.5 kmh S 19.0 mph30.6 kmh 29.63 in1003.4 mb 0.00 in0.0 mm 0.00 in0.0 mm 0.05 in1.3 mm
05:25 AM 49.8°F9.9°C 48.1°F8.9°C 94% 9.1 mph S14.6 kmh S 19.0 mph30.6 kmh 29.63 in1003.4 mb 0.00 in0.0 mm 0.00 in0.0 mm 0.05 in1.3 mm
05:20 AM 49.7°F9.8°C 48.0°F8.9°C 94% 9.3 mph S15.0 kmh S 21.0 mph33.8 kmh 29.64 in1003.7 mb 0.00 in0.0 mm 0.00 in0.0 mm 0.05 in1.3 mm
05:15 AM 49.8°F9.9°C 48.1°F8.9°C 94% 9.2 mph S14.8 kmh S 21.0 mph33.8 kmh 29.64 in1003.7 mb 0.00 in0.0 mm 0.00 in0.0 mm 0.05 in1.3 mm
05:10 AM 49.9°F9.9°C 48.2°F9.0°C 94% 9.0 mph S14.5 kmh S 21.0 mph33.8 kmh 29.64 in1003.7 mb 0.00 in0.0 mm 0.00 in0.0 mm 0.05 in1.3 mm
05:05 AM 50.3°F10.2°C 48.6°F9.2°C 94% 8.6 mph S13.8 kmh S 21.0 mph33.8 kmh 29.65 in1004.1 mb 0.00 in0.0 mm 0.00 in0.0 mm 0.05 in1.3 mm
05:00 AM 50.1°F10.1°C 48.4°F9.1°C 94% 7.6 mph S12.2 kmh S 21.0 mph33.8 kmh 29.64 in1003.7 mb 0.00 in0.0 mm 0.00 in0.0 mm 0.05 in1.3 mm
04:55 AM 50.1°F10.1°C 48.4°F9.1°C 94% 6.5 mph S10.5 kmh S 21.0 mph33.8 kmh 29.64 in1003.7 mb 0.00 in0.0 mm 0.00 in0.0 mm 0.05 in1.3 mm
04:50 AM 50.1°F10.1°C 48.4°F9.1°C 94% 6.5 mph S10.5 kmh S 11.0 mph17.7 kmh 29.65 in1004.1 mb 0.00 in0.0 mm 0.00 in0.0 mm 0.05 in1.3 mm
04:45 AM 50.0°F10.0°C 48.3°F9.1°C 94% 7.0 mph S11.3 kmh S 16.0 mph25.7 kmh 29.65 in1004.1 mb 0.00 in0.0 mm 0.00 in0.0 mm 0.05 in1.3 mm
04:40 AM 50.1°F10.1°C 48.4°F9.1°C 94% 6.7 mph S10.8 kmh S 17.0 mph27.4 kmh 29.66 in1004.4 mb 0.00 in0.0 mm 0.00 in0.0 mm 0.05 in1.3 mm
04:35 AM 50.1°F10.1°C 48.4°F9.1°C 94% 6.3 mph S10.1 kmh S 17.0 mph27.4 kmh 29.66 in1004.4 mb 0.00 in0.0 mm 0.00 in0.0 mm 0.05 in1.3 mm
04:30 AM 50.1°F10.1°C 48.7°F9.3°C 95% 6.5 mph S10.5 kmh S 15.0 mph24.1 kmh 29.66 in1004.4 mb 0.00 in0.0 mm 0.00 in0.0 mm 0.05 in1.3 mm
04:25 AM 50.0°F10.0°C 48.6°F9.2°C 95% 7.5 mph S12.1 kmh S 15.0 mph24.1 kmh 29.66 in1004.4 mb 0.00 in0.0 mm 0.00 in0.0 mm 0.05 in1.3 mm
04:20 AM 50.0°F10.0°C 48.6°F9.2°C 95% 8.6 mph S13.8 kmh S 16.0 mph25.7 kmh 29.66 in1004.4 mb 0.00 in0.0 mm 0.00 in0.0 mm 0.05 in1.3 mm
04:15 AM 50.0°F10.0°C 48.6°F9.2°C 95% 8.8 mph S14.2 kmh S 16.0 mph25.7 kmh 29.66 in1004.4 mb 0.00 in0.0 mm 0.00 in0.0 mm 0.05 in1.3 mm
04:10 AM 50.0°F10.0°C 48.6°F9.2°C 95% 8.1 mph S13.0 kmh S 21.0 mph33.8 kmh 29.66 in1004.4 mb 0.00 in0.0 mm 0.00 in0.0 mm 0.05 in1.3 mm
04:05 AM 49.9°F9.9°C 48.5°F9.2°C 95% 7.3 mph S11.7 kmh S 21.0 mph33.8 kmh 29.67 in1004.7 mb 0.00 in0.0 mm 0.00 in0.0 mm 0.05 in1.3 mm
04:00 AM 49.9°F9.9°C 48.5°F9.2°C 95% 6.9 mph S11.1 kmh S 17.0 mph27.4 kmh 29.67 in1004.7 mb 0.00 in0.0 mm 0.00 in0.0 mm 0.05 in1.3 mm
03:55 AM 49.9°F9.9°C 48.5°F9.2°C 95% 6.9 mph S11.1 kmh S 15.0 mph24.1 kmh 29.67 in1004.7 mb 0.00 in0.0 mm 0.00 in0.0 mm 0.05 in1.3 mm
03:50 AM 49.8°F9.9°C 48.7°F9.3°C 96% 7.1 mph S11.4 kmh S 16.0 mph25.7 kmh 29.67 in1004.7 mb 0.00 in0.0 mm 0.00 in0.0 mm 0.05 in1.3 mm
03:45 AM 49.8°F9.9°C 48.7°F9.3°C 96% 7.6 mph S12.2 kmh S 16.0 mph25.7 kmh 29.67 in1004.7 mb 0.00 in0.0 mm 0.00 in0.0 mm 0.05 in1.3 mm
03:40 AM 49.8°F9.9°C 48.7°F9.3°C 96% 7.9 mph S12.7 kmh S 15.0 mph24.1 kmh 29.67 in1004.7 mb 0.00 in0.0 mm 0.00 in0.0 mm 0.05 in1.3 mm
03:35 AM 49.7°F9.8°C 48.6°F9.2°C 96% 7.6 mph S12.2 kmh S 14.0 mph22.5 kmh 29.68 in1005.1 mb 0.00 in0.0 mm 0.00 in0.0 mm 0.05 in1.3 mm
03:30 AM 49.6°F9.8°C 48.5°F9.2°C 96% 6.8 mph S10.9 kmh S 14.0 mph22.5 kmh 29.68 in1005.1 mb 0.00 in0.0 mm 0.00 in0.0 mm 0.05 in1.3 mm
03:25 AM 49.6°F9.8°C 48.5°F9.2°C 96% 6.1 mph S9.8 kmh S 14.0 mph22.5 kmh 29.68 in1005.1 mb 0.00 in0.0 mm 0.00 in0.0 mm 0.05 in1.3 mm
03:20 AM 49.6°F9.8°C 48.5°F9.2°C 96% 6.3 mph SSW10.1 kmh SSW 16.0 mph25.7 kmh 29.68 in1005.1 mb 0.00 in0.0 mm 0.00 in0.0 mm 0.05 in1.3 mm
03:15 AM 49.6°F9.8°C 48.5°F9.2°C 96% 6.7 mph SSW10.8 kmh SSW 16.0 mph25.7 kmh 29.69 in1005.4 mb 0.00 in0.0 mm 0.00 in0.0 mm 0.05 in1.3 mm
03:10 AM 49.7°F9.8°C 48.6°F9.2°C 96% 7.4 mph S11.9 kmh S 18.0 mph29.0 kmh 29.69 in1005.4 mb 0.00 in0.0 mm 0.00 in0.0 mm 0.05 in1.3 mm
03:05 AM 49.7°F9.8°C 48.6°F9.2°C 96% 8.1 mph S13.0 kmh S 18.0 mph29.0 kmh 29.70 in1005.8 mb 0.00 in0.0 mm 0.00 in0.0 mm 0.05 in1.3 mm
03:00 AM 49.7°F9.8°C 48.6°F9.2°C 96% 8.4 mph S13.5 kmh S 17.0 mph27.4 kmh 29.70 in1005.8 mb 0.00 in0.0 mm 0.00 in0.0 mm 0.05 in1.3 mm
02:55 AM 49.7°F9.8°C 48.6°F9.2°C 96% 8.3 mph S13.4 kmh S 22.0 mph35.4 kmh 29.70 in1005.8 mb 0.00 in0.0 mm 0.00 in0.0 mm 0.05 in1.3 mm
02:50 AM 49.7°F9.8°C 48.6°F9.2°C 96% 7.6 mph S12.2 kmh S 22.0 mph35.4 kmh 29.71 in1006.1 mb 0.00 in0.0 mm 0.00 in0.0 mm 0.05 in1.3 mm
02:45 AM 49.7°F9.8°C 48.6°F9.2°C 96% 7.1 mph S11.4 kmh S 18.0 mph29.0 kmh 29.71 in1006.1 mb 0.01 in0.3 mm 0.00 in0.0 mm 0.05 in1.3 mm
02:40 AM 49.7°F9.8°C 48.6°F9.2°C 96% 7.0 mph S11.3 kmh S 15.0 mph24.1 kmh 29.72 in1006.4 mb 0.01 in0.3 mm 0.00 in0.0 mm 0.05 in1.3 mm
02:35 AM 49.6°F9.8°C 48.8°F9.3°C 97% 7.1 mph S11.4 kmh S 19.0 mph30.6 kmh 29.72 in1006.4 mb 0.02 in0.5 mm 0.00 in0.0 mm 0.05 in1.3 mm
02:30 AM 49.6°F9.8°C 48.8°F9.3°C 97% 7.1 mph S11.4 kmh S 19.0 mph30.6 kmh 29.72 in1006.4 mb 0.02 in0.5 mm 0.00 in0.0 mm 0.05 in1.3 mm
02:25 AM 49.6°F9.8°C 48.8°F9.3°C 97% 7.0 mph SSW11.3 kmh SSW 21.0 mph33.8 kmh 29.72 in1006.4 mb 0.02 in0.5 mm 0.00 in0.0 mm 0.05 in1.3 mm
02:20 AM 49.6°F9.8°C 48.8°F9.3°C 97% 6.8 mph S10.9 kmh S 21.0 mph33.8 kmh 29.72 in1006.4 mb 0.02 in0.5 mm 0.00 in0.0 mm 0.05 in1.3 mm
02:15 AM 49.5°F9.7°C 48.7°F9.3°C 97% 6.3 mph S10.1 kmh S 17.0 mph27.4 kmh 29.72 in1006.4 mb 0.02 in0.5 mm 0.00 in0.0 mm 0.05 in1.3 mm
02:10 AM 49.4°F9.7°C 48.6°F9.2°C 97% 5.7 mph S9.2 kmh S 16.0 mph25.7 kmh 29.73 in1006.8 mb 0.02 in0.5 mm 0.00 in0.0 mm 0.05 in1.3 mm
02:05 AM 49.4°F9.7°C 48.6°F9.2°C 97% 5.8 mph SSW9.3 kmh SSW 13.0 mph20.9 kmh 29.73 in1006.8 mb 0.02 in0.5 mm 0.00 in0.0 mm 0.05 in1.3 mm
02:00 AM 49.5°F9.7°C 48.7°F9.3°C 97% 6.3 mph SSW10.1 kmh SSW 14.0 mph22.5 kmh 29.73 in1006.8 mb 0.02 in0.5 mm 0.00 in0.0 mm 0.05 in1.3 mm
01:55 AM 49.4°F9.7°C 48.6°F9.2°C 97% 6.7 mph SSW10.8 kmh SSW 17.0 mph27.4 kmh 29.73 in1006.8 mb 0.02 in0.5 mm 0.00 in0.0 mm 0.05 in1.3 mm
01:50 AM 49.5°F9.7°C 48.7°F9.3°C 97% 7.3 mph S11.7 kmh S 17.0 mph27.4 kmh 29.73 in1006.8 mb 0.02 in0.5 mm 0.00 in0.0 mm 0.05 in1.3 mm
01:45 AM 49.5°F9.7°C 48.7°F9.3°C 97% 7.3 mph S11.7 kmh S 17.0 mph27.4 kmh 29.73 in1006.8 mb 0.02 in0.5 mm 0.00 in0.0 mm 0.04 in1.0 mm
01:40 AM 49.5°F9.7°C 48.7°F9.3°C 97% 6.5 mph S10.5 kmh S 17.0 mph27.4 kmh 29.73 in1006.8 mb 0.02 in0.5 mm 0.00 in0.0 mm 0.04 in1.0 mm
01:35 AM 49.5°F9.7°C 48.7°F9.3°C 97% 5.8 mph S9.3 kmh S 13.0 mph20.9 kmh 29.73 in1006.8 mb 0.02 in0.5 mm 0.00 in0.0 mm 0.03 in0.8 mm
01:30 AM 49.4°F9.7°C 48.6°F9.2°C 97% 5.3 mph S8.5 kmh S 12.0 mph19.3 kmh 29.74 in1007.1 mb 0.03 in0.8 mm 0.00 in0.0 mm 0.03 in0.8 mm
01:25 AM 49.4°F9.7°C 48.6°F9.2°C 97% 5.0 mph SSW8.0 kmh SSW 12.0 mph19.3 kmh 29.75 in1007.5 mb 0.03 in0.8 mm 0.00 in0.0 mm 0.03 in0.8 mm
01:20 AM 49.4°F9.7°C 48.6°F9.2°C 97% 5.0 mph SSW8.0 kmh SSW 19.0 mph30.6 kmh 29.74 in1007.1 mb 0.03 in0.8 mm 0.00 in0.0 mm 0.03 in0.8 mm
01:15 AM 49.3°F9.6°C 48.5°F9.2°C 97% 5.0 mph S8.0 kmh S 19.0 mph30.6 kmh 29.74 in1007.1 mb 0.03 in0.8 mm 0.00 in0.0 mm 0.03 in0.8 mm
01:10 AM 49.3°F9.6°C 48.5°F9.2°C 97% 4.7 mph S7.6 kmh S 11.0 mph17.7 kmh 29.75 in1007.5 mb 0.03 in0.8 mm 0.00 in0.0 mm 0.03 in0.8 mm
01:05 AM 49.3°F9.6°C 48.5°F9.2°C 97% 4.2 mph S6.8 kmh S 11.0 mph17.7 kmh 29.75 in1007.5 mb 0.03 in0.8 mm 0.00 in0.0 mm 0.03 in0.8 mm
01:00 AM 49.4°F9.7°C 48.6°F9.2°C 97% 4.5 mph S7.2 kmh S 11.0 mph17.7 kmh 29.75 in1007.5 mb 0.03 in0.8 mm 0.00 in0.0 mm 0.03 in0.8 mm
12:55 AM 49.4°F9.7°C 48.6°F9.2°C 97% 5.2 mph SSW8.4 kmh SSW 11.0 mph17.7 kmh 29.76 in1007.8 mb 0.04 in1.0 mm 0.12 in3.0 mm 0.03 in0.8 mm
12:50 AM 49.4°F9.7°C 48.6°F9.2°C 97% 5.1 mph SSW8.2 kmh SSW 15.0 mph24.1 kmh 29.76 in1007.8 mb 0.03 in0.8 mm 0.00 in0.0 mm 0.02 in0.5 mm
12:45 AM 49.4°F9.7°C 48.6°F9.2°C 97% 4.5 mph S7.2 kmh S 15.0 mph24.1 kmh 29.76 in1007.8 mb 0.03 in0.8 mm 0.00 in0.0 mm 0.02 in0.5 mm
12:40 AM 49.4°F9.7°C 48.3°F9.1°C 96% 4.4 mph SSW7.1 kmh SSW 14.0 mph22.5 kmh 29.76 in1007.8 mb 0.03 in0.8 mm 0.00 in0.0 mm 0.02 in0.5 mm
12:35 AM 49.4°F9.7°C 48.3°F9.1°C 96% 4.8 mph SSW7.7 kmh SSW 13.0 mph20.9 kmh 29.76 in1007.8 mb 0.03 in0.8 mm 0.12 in3.0 mm 0.02 in0.5 mm
12:30 AM 49.4°F9.7°C 48.3°F9.1°C 96% 5.5 mph SSW8.9 kmh SSW 12.0 mph19.3 kmh 29.76 in1007.8 mb 0.02 in0.5 mm 0.00 in0.0 mm 0.03 in0.8 mm
12:25 AM 49.3°F9.6°C 48.2°F9.0°C 96% 5.5 mph SSW8.9 kmh SSW 14.0 mph22.5 kmh 29.77 in1008.1 mb 0.03 in0.8 mm 0.00 in0.0 mm 0.03 in0.8 mm
12:20 AM 49.3°F9.6°C 48.2°F9.0°C 96% 5.0 mph SSW8.0 kmh SSW 17.0 mph27.4 kmh 29.77 in1008.1 mb 0.03 in0.8 mm 0.00 in0.0 mm 0.03 in0.8 mm
12:15 AM 49.3°F9.6°C 48.2°F9.0°C 96% 5.0 mph SSW8.0 kmh SSW 17.0 mph27.4 kmh 29.77 in1008.1 mb 0.03 in0.8 mm 0.00 in0.0 mm 0.03 in0.8 mm
12:10 AM 49.2°F9.6°C 48.1°F8.9°C 96% 5.4 mph SSW8.7 kmh SSW 14.0 mph22.5 kmh 29.77 in1008.1 mb 0.03 in0.8 mm 0.00 in0.0 mm 0.03 in0.8 mm
12:05 AM 49.2°F9.6°C 48.1°F8.9°C 96% 6.1 mph S9.8 kmh S 11.0 mph17.7 kmh 29.77 in1008.1 mb 0.03 in0.8 mm 0.00 in0.0 mm 0.03 in0.8 mm
12:00 AM 49.1°F9.5°C 48.0°F8.9°C 96% 6.7 mph S10.8 kmh S 16.0 mph25.7 kmh 29.77 in1008.1 mb 0.03 in0.8 mm 0.00 in0.0 mm 0.03 in0.8 mm